Time;durP1;ratioP1;P1;durP2;ratioP2;P2;SDS_P1;SDS_P2;PMS_P1;PMS_P2;Temp;Humidity;BMP_temperature;BMP_pressure;BME280_temperature;BME280_humidity;BME280_pressure;Samples;Min_cycle;Max_cycle;Signal;HPM_P1;HPM_P2
2023/09/28 00:04:52;;;;;;;8.02;4.75;;;;;;;14.31;nan;101087.66;10354473;28;20504;-78
2023/09/28 00:09:52;;;;;;;9.93;6.18;;;;;;;14.31;nan;101092.94;10359117;28;20056;-77
2023/09/28 00:14:53;;;;;;;12.18;6.70;;;;;;;14.27;nan;101092.78;10357015;28;20137;-78
2023/09/28 00:19:54;;;;;;;9.73;5.93;;;;;;;14.23;nan;101091.75;10358163;28;20038;-78
2023/09/28 00:24:55;;;;;;;21.70;7.30;;;;;;;14.21;nan;101089.06;10367346;28;20037;-78
2023/09/28 00:29:57;;;;;;;14.35;6.53;;;;;;;14.18;nan;101093.31;10379876;28;20037;-78
2023/09/28 00:34:57;;;;;;;8.40;6.60;;;;;;;14.15;nan;101116.91;10360976;28;20041;-78
2023/09/28 00:39:58;;;;;;;11.55;5.32;;;;;;;14.12;nan;101107.16;10322432;28;20045;-78
2023/09/28 00:44:59;;;;;;;10.68;6.57;;;;;;;14.13;nan;101098.44;10359486;28;20056;-78
2023/09/28 00:50:00;;;;;;;8.82;5.90;;;;;;;14.18;nan;101109.09;10358739;28;20056;-78
2023/09/28 00:55:00;;;;;;;18.98;6.47;;;;;;;14.17;nan;101120.47;10366317;28;20848;-78
2023/09/28 01:00:26;;;;;;;8.82;5.10;;;;;;;14.18;nan;101119.63;10352262;28;20038;-78
2023/09/28 01:05:30;;;;;;;7.72;5.63;;;;;;;14.16;nan;101121.31;10353565;28;20052;-78
2023/09/28 01:10:35;;;;;;;11.45;6.03;;;;;;;14.08;nan;101135.09;10358723;28;20044;-78
2023/09/28 01:15:35;;;;;;;10.57;5.88;;;;;;;13.97;nan;101139.06;10329925;28;20120;-78
2023/09/28 01:20:37;;;;;;;10.45;7.18;;;;;;;13.90;nan;101134.41;10357757;28;20488;-78
2023/09/28 01:25:38;;;;;;;10.00;6.07;;;;;;;13.83;nan;101141.16;10369111;28;20049;-78
2023/09/28 01:30:39;;;;;;;10.68;6.85;;;;;;;13.68;nan;101133.56;10371359;28;20053;-78
2023/09/28 01:35:40;;;;;;;9.45;5.90;;;;;;;13.56;nan;101134.00;10356002;28;20050;-78
2023/09/28 01:40:41;;;;;;;14.80;5.82;;;;;;;13.53;nan;101130.31;10358785;28;20550;-78
2023/09/28 01:45:43;;;;;;;10.48;5.93;;;;;;;13.46;nan;101135.34;10356388;28;20478;-78
2023/09/28 01:50:44;;;;;;;8.07;6.05;;;;;;;13.40;nan;101142.06;10350690;28;20115;-78
2023/09/28 01:55:44;;;;;;;13.07;6.77;;;;;;;13.27;nan;101143.28;10354585;28;20038;-78
2023/09/28 02:00:46;;;;;;;11.18;6.75;;;;;;;13.19;nan;101145.59;10353023;28;20490;-78
2023/09/28 02:05:46;;;;;;;14.00;7.83;;;;;;;13.11;nan;101145.28;10357173;28;20591;-77
2023/09/28 02:10:47;;;;;;;14.38;8.70;;;;;;;13.07;nan;101141.63;10332770;28;20042;-78
2023/09/28 02:15:47;;;;;;;13.13;6.78;;;;;;;13.03;nan;101147.59;10368874;28;20038;-77
2023/09/28 02:20:48;;;;;;;9.02;7.15;;;;;;;12.97;nan;101149.06;10369990;28;20452;-77
2023/09/28 02:25:48;;;;;;;16.05;8.52;;;;;;;12.89;nan;101148.75;10364843;28;20397;-78
2023/09/28 02:30:49;;;;;;;13.55;8.07;;;;;;;12.82;nan;101155.44;10367764;28;20385;-78
2023/09/28 02:35:50;;;;;;;11.48;8.43;;;;;;;12.81;nan;101160.66;10365207;28;20373;-78
2023/09/28 02:40:50;;;;;;;21.70;8.35;;;;;;;12.78;nan;101159.69;10364044;28;20493;-78
2023/09/28 02:45:51;;;;;;;11.27;8.00;;;;;;;12.81;nan;101176.41;10366945;28;20049;-77
2023/09/28 02:50:51;;;;;;;12.93;9.07;;;;;;;12.72;nan;101192.66;10355010;28;20042;-78
2023/09/28 02:55:52;;;;;;;10.18;7.72;;;;;;;12.66;nan;101187.13;10364675;28;20125;-78
2023/09/28 03:00:53;;;;;;;13.68;8.88;;;;;;;12.65;nan;101185.31;10360813;28;20042;-78
2023/09/28 03:05:56;;;;;;;14.13;8.15;;;;;;;12.63;nan;101187.91;10369009;28;20140;-78
2023/09/28 03:10:57;;;;;;;12.43;8.48;;;;;;;12.57;nan;101191.13;10322796;28;20057;-78
2023/09/28 03:15:57;;;;;;;11.65;9.00;;;;;;;12.48;nan;101193.34;10333699;28;20042;-78
2023/09/28 03:20:58;;;;;;;16.98;8.98;;;;;;;12.33;nan;101194.44;10358620;28;20448;-78
2023/09/28 03:25:58;;;;;;;13.50;9.13;;;;;;;12.33;nan;101185.69;10360769;28;20042;-78
2023/09/28 03:30:59;;;;;;;13.05;9.10;;;;;;;12.42;nan;101204.47;10360407;28;20044;-77
2023/09/28 03:36:00;;;;;;;12.52;8.73;;;;;;;12.40;nan;101207.84;10362680;28;20041;-77
2023/09/28 03:41:00;;;;;;;10.82;8.18;;;;;;;12.35;nan;101223.41;10358453;28;20042;-76
2023/09/28 03:46:01;;;;;;;13.93;8.82;;;;;;;12.35;nan;101218.16;10371767;28;20041;-78
2023/09/28 03:51:02;;;;;;;53.88;21.98;;;;;;;12.42;nan;101232.44;10343081;28;20054;-76
2023/09/28 03:56:03;;;;;;;22.15;11.55;;;;;;;12.42;nan;101232.44;10368808;28;20038;-77
2023/09/28 04:01:07;;;;;;;10.50;8.63;;;;;;;12.37;nan;101233.97;10360251;28;20053;-77
2023/09/28 04:06:08;;;;;;;14.35;8.85;;;;;;;12.39;nan;101225.34;10376020;28;20397;-78
2023/09/28 04:11:09;;;;;;;14.47;9.63;;;;;;;12.34;nan;101232.09;10329366;28;20041;-78
2023/09/28 04:16:09;;;;;;;16.13;8.32;;;;;;;12.33;nan;101240.81;10360611;28;20038;-77
2023/09/28 04:21:10;;;;;;;16.25;10.60;;;;;;;12.29;nan;101241.50;10356994;28;20118;-77
2023/09/28 04:26:10;;;;;;;21.27;11.57;;;;;;;12.26;nan;101247.47;10363388;28;20034;-77
2023/09/28 04:31:11;;;;;;;15.38;9.60;;;;;;;12.23;nan;101244.72;10359664;28;20049;-78
2023/09/28 04:36:12;;;;;;;16.63;9.38;;;;;;;12.19;nan;101248.03;10347069;28;20041;-78
2023/09/28 04:41:12;;;;;;;10.52;8.43;;;;;;;12.13;nan;101253.91;10343763;28;20052;-77
2023/09/28 04:46:13;;;;;;;16.95;9.70;;;;;;;12.03;nan;101254.28;10355800;28;20111;-78
2023/09/28 04:51:14;;;;;;;14.57;9.75;;;;;;;11.96;nan;101258.28;10357310;28;20129;-78
2023/09/28 04:56:15;;;;;;;13.80;9.70;;;;;;;11.94;nan;101259.06;10360998;28;20040;-78
2023/09/28 05:01:16;;;;;;;11.85;9.52;;;;;;;12.03;nan;101259.53;10355473;28;20030;-77
2023/09/28 05:06:22;;;;;;;13.38;10.27;;;;;;;11.94;nan;101273.03;10355588;28;20493;-77
2023/09/28 05:11:23;;;;;;;13.55;9.02;;;;;;;11.97;nan;101267.94;10351939;28;20516;-76
2023/09/28 05:16:24;;;;;;;15.32;9.07;;;;;;;12.07;nan;101269.34;10367886;28;20042;-76
2023/09/28 05:21:24;;;;;;;13.55;9.57;;;;;;;12.09;nan;101278.19;10332341;28;20046;-75
2023/09/28 05:26:25;;;;;;;11.32;7.45;;;;;;;12.06;nan;101296.41;10346215;28;20045;-75
2023/09/28 05:31:26;;;;;;;13.65;9.32;;;;;;;12.01;nan;101296.16;10355127;28;20045;-76
2023/09/28 05:36:26;;;;;;;15.38;8.88;;;;;;;12.06;nan;101287.63;10350960;28;20276;-77
2023/09/28 05:41:27;;;;;;;14.30;9.20;;;;;;;12.12;nan;101301.03;10343468;28;20124;-75
2023/09/28 05:46:27;;;;;;;12.30;9.43;;;;;;;11.96;nan;101309.88;10325967;28;20413;-75
2023/09/28 05:51:28;;;;;;;17.63;10.23;;;;;;;11.98;nan;101319.59;10356684;28;20085;-75
2023/09/28 05:56:28;;;;;;;14.85;9.93;;;;;;;11.99;nan;101331.00;10361055;28;20497;-75
2023/09/28 06:01:30;;;;;;;16.95;9.95;;;;;;;12.02;nan;101329.44;10353078;28;20133;-76
2023/09/28 06:06:30;;;;;;;16.13;9.18;;;;;;;12.14;nan;101339.66;10362312;28;20045;-76
2023/09/28 06:11:31;;;;;;;14.98;10.20;;;;;;;12.20;nan;101336.41;10352927;28;20375;-76
2023/09/28 06:16:31;;;;;;;27.42;11.70;;;;;;;12.34;nan;101342.34;10365972;28;20033;-75
2023/09/28 06:21:32;;;;;;;13.00;10.10;;;;;;;12.47;nan;101344.72;10369216;28;20486;-78
2023/09/28 06:26:33;;;;;;;15.70;10.52;;;;;;;12.57;nan;101359.19;10343935;28;20053;-81
2023/09/28 06:31:33;;;;;;;14.52;10.10;;;;;;;12.75;nan;101360.88;10360146;28;20164;-79
2023/09/28 06:36:34;;;;;;;13.40;9.38;;;;;;;13.10;nan;101353.69;10357610;28;20121;-77
2023/09/28 06:41:35;;;;;;;18.15;8.85;;;;;;;13.32;nan;101363.47;10345211;28;20041;-76
2023/09/28 06:46:36;;;;;;;16.52;9.00;;;;;;;13.79;nan;101371.63;10317286;28;20141;-77
2023/09/28 06:51:37;;;;;;;16.55;8.95;;;;;;;15.18;nan;101393.81;10376282;28;20046;-77
2023/09/28 06:56:37;;;;;;;9.05;5.70;;;;;;;15.94;nan;101387.69;10369192;28;20037;-78
2023/09/28 07:01:38;;;;;;;7.95;4.43;;;;;;;16.72;nan;101375.22;10363118;28;20136;-78
2023/09/28 07:06:38;;;;;;;6.20;4.57;;;;;;;17.49;nan;101352.75;10376535;28;20504;-78
2023/09/28 07:11:39;;;;;;;8.70;5.03;;;;;;;18.33;nan;101292.19;10356356;28;20153;-80
2023/09/28 07:16:39;;;;;;;12.87;5.00;;;;;;;18.91;nan;101281.03;10367149;28;20045;-80
2023/09/28 07:21:40;;;;;;;19.43;8.77;;;;;;;19.33;nan;101297.75;10356703;28;20139;-77
2023/09/28 07:26:41;;;;;;;7.13;5.23;;;;;;;19.75;nan;101327.69;10358278;28;20470;-77
2023/09/28 07:31:43;;;;;;;13.15;4.95;;;;;;;20.18;nan;101298.28;10378195;28;20045;-77
2023/09/28 07:36:45;;;;;;;;;;;;;;;20.15;nan;101313.31;10357292;28;20065;-77
2023/09/28 07:41:45;;;;;;;17.73;5.40;;;;;;;19.32;nan;101311.88;10377301;28;19956;-77
2023/09/28 07:46:46;;;;;;;10.47;6.47;;;;;;;18.41;nan;101307.38;10358313;28;20586;-77
2023/09/28 07:51:47;;;;;;;13.53;7.27;;;;;;;18.38;nan;101324.06;10363789;28;20243;-77
2023/09/28 07:56:47;;;;;;;24.30;13.00;;;;;;;18.25;nan;101341.47;10356916;28;20133;-76
2023/09/28 08:01:48;;;;;;;10.87;6.43;;;;;;;18.19;nan;101342.19;10361420;28;20073;-76
2023/09/28 08:06:48;;;;;;;15.03;9.00;;;;;;;18.25;nan;101365.31;10376626;28;20406;-77
2023/09/28 08:11:52;;;;;;;17.90;7.80;;;;;;;18.33;nan;101374.31;10370443;28;20050;-76
2023/09/28 08:16:52;;;;;;;23.98;8.75;;;;;;;18.31;nan;101375.13;10390809;28;20038;-76
2023/09/28 08:21:53;;;;;;;16.20;5.50;;;;;;;18.49;nan;101395.88;10347811;28;20381;-77
2023/09/28 08:26:53;;;;;;;10.07;3.55;;;;;;;18.71;nan;101399.03;10366472;28;20491;-75
2023/09/28 08:31:54;;;;;;;6.72;4.22;;;;;;;18.69;nan;101406.06;10352879;28;20180;-74
2023/09/28 08:36:55;;;;;;;264.87;38.77;;;;;;;18.75;nan;101406.19;10355932;28;20038;-75
2023/09/28 08:41:55;;;;;;;121.53;115.57;;;;;;;18.99;nan;101413.81;10337751;28;20125;-74
2023/09/28 08:46:57;;;;;;;17.60;6.35;;;;;;;19.37;nan;101423.47;10368760;28;20367;-75
2023/09/28 08:51:58;;;;;;;85.93;81.65;;;;;;;19.67;nan;101446.16;10355657;28;20856;-75
2023/09/28 08:56:59;;;;;;;254.98;66.25;;;;;;;19.88;nan;101437.69;10356619;28;20048;-75
2023/09/28 09:02:00;;;;;;;12.18;2.63;;;;;;;19.75;nan;101459.56;10361704;28;20060;-75
2023/09/28 09:07:04;;;;;;;11.10;2.40;;;;;;;19.88;nan;101458.94;10357273;28;20117;-76
2023/09/28 09:12:09;;;;;;;10.27;4.63;;;;;;;20.06;nan;101447.78;10361108;28;20560;-76
2023/09/28 09:17:11;;;;;;;472.63;77.88;;;;;;;20.36;nan;101477.50;10333023;28;20100;-76
2023/09/28 09:22:31;;;;;;;20.30;4.32;;;;;;;20.28;nan;101488.03;10359271;28;20038;-75
2023/09/28 09:27:31;;;;;;;6.45;3.08;;;;;;;19.89;nan;101476.69;10309436;28;20042;-75
2023/09/28 09:32:32;;;;;;;11.10;3.30;;;;;;;20.12;nan;101472.69;10312873;28;20096;-77
2023/09/28 09:37:33;;;;;;;14.77;4.37;;;;;;;20.91;nan;101487.28;10343940;28;20105;-76
2023/09/28 09:42:33;;;;;;;3.10;1.23;;;;;;;21.67;nan;101517.59;10355404;28;20050;-76
2023/09/28 09:47:34;;;;;;;9.83;4.03;;;;;;;23.26;nan;101530.59;10357598;28;20504;-75
2023/09/28 09:52:35;;;;;;;124.50;113.72;;;;;;;25.04;nan;101555.06;10341339;28;20212;-76
2023/09/28 09:57:39;;;;;;;169.27;157.67;;;;;;;25.26;nan;101562.16;10365966;28;20494;-76
2023/09/28 10:02:39;;;;;;;18.65;17.73;;;;;;;24.81;nan;101568.47;10314518;28;20131;-76
2023/09/28 10:07:40;;;;;;;116.33;108.20;;;;;;;24.63;nan;101570.22;10312870;28;20048;-76
2023/09/28 10:12:40;;;;;;;1999.90;999.90;;;;;;;26.13;nan;101568.06;10335620;28;20124;-76
2023/09/28 10:17:41;;;;;;;7.20;6.90;;;;;;;26.60;nan;101581.19;10373489;28;20077;-75
2023/09/28 10:22:45;;;;;;;6.37;6.07;;;;;;;26.46;nan;101583.97;10383544;28;20777;-77
2023/09/28 10:27:46;;;;;;;1999.90;999.90;;;;;;;27.38;nan;101578.69;10335214;28;20030;-76
2023/09/28 10:32:50;;;;;;;40.30;27.38;;;;;;;26.36;nan;101572.44;10335460;28;20487;-76
2023/09/28 10:38:22;;;;;;;78.72;75.72;;;;;;;26.94;nan;101556.75;10363012;28;20099;-76
2023/09/28 10:43:39;;;;;;;67.72;62.65;;;;;;;25.19;nan;101555.94;10356038;28;20133;-75
2023/09/28 10:48:40;;;;;;;27.05;26.15;;;;;;;25.89;nan;101558.34;10360211;28;20053;-76
2023/09/28 10:53:41;;;;;;;1.20;1.20;;;;;;;26.77;nan;101557.78;10364172;28;20528;-76
2023/09/28 10:58:41;;;;;;;1.00;1.00;;;;;;;25.97;nan;101567.25;10367718;28;20033;-76
2023/09/28 11:03:42;;;;;;;5.37;5.17;;;;;;;26.64;nan;101565.03;10367386;28;20172;-78
2023/09/28 11:08:43;;;;;;;1.60;1.60;;;;;;;26.12;nan;101551.97;10357258;28;20046;-77
2023/09/28 11:13:44;;;;;;;5.00;4.80;;;;;;;26.28;nan;101547.44;10337232;28;20065;-77
2023/09/28 11:18:44;;;;;;;18.47;17.73;;;;;;;24.34;nan;101552.34;10372221;28;20501;-77
2023/09/28 11:23:45;;;;;;;25.93;25.00;;;;;;;24.54;nan;101550.59;10355985;28;20070;-77
2023/09/28 11:28:45;;;;;;;16.47;15.77;;;;;;;24.19;nan;101546.97;10331645;28;20038;-77
2023/09/28 11:33:46;;;;;;;1.13;1.13;;;;;;;24.63;nan;101548.81;10363002;28;20042;-75
2023/09/28 11:38:49;;;;;;;8.23;7.93;;;;;;;23.63;nan;101553.94;10370777;28;20049;-77
2023/09/28 11:43:59;;;;;;;7.28;6.97;;;;;;;23.52;nan;101549.44;10359019;28;20041;-77
2023/09/28 11:49:08;;;;;;;3.58;3.47;;;;;;;22.57;nan;101542.53;10364089;28;20057;-77
2023/09/28 11:54:14;;;;;;;3.72;3.55;;;;;;;22.54;nan;101527.38;10372555;28;20041;-76
2023/09/28 11:59:17;;;;;;;3.15;3.05;;;;;;;22.30;nan;101525.38;10377907;28;20042;-77
2023/09/28 12:04:18;;;;;;;2.10;2.00;;;;;;;22.57;nan;101529.22;10369325;28;20045;-77
2023/09/28 12:09:19;;;;;;;2.20;2.10;;;;;;;24.89;nan;101536.34;10360557;28;20516;-77
2023/09/28 12:14:20;;;;;;;2.90;2.83;;;;;;;25.79;nan;101546.81;10336353;28;20042;-77
2023/09/28 12:19:20;;;;;;;1.50;1.50;;;;;;;24.25;nan;101543.44;10359682;28;20301;-77
2023/09/28 12:24:21;;;;;;;10.13;9.60;;;;;;;23.52;nan;101532.50;10366811;28;20417;-77
2023/09/28 12:29:21;;;;;;;2.97;2.87;;;;;;;23.01;nan;101527.72;10368935;28;20044;-77
2023/09/28 12:34:25;;;;;;;12.13;11.63;;;;;;;22.92;nan;101509.91;10365267;28;20076;-77
2023/09/28 12:39:25;;;;;;;1.80;1.80;;;;;;;23.27;nan;101509.25;10359716;28;20129;-76
2023/09/28 12:44:26;;;;;;;10.17;3.77;;;;;;;24.24;nan;101509.56;10362785;28;20393;-77
2023/09/28 12:49:26;;;;;;;1090.80;269.97;;;;;;;26.73;nan;101517.53;10374762;28;20081;-77
2023/09/28 12:54:27;;;;;;;795.43;453.87;;;;;;;27.74;nan;101532.59;10368064;28;20152;-77
2023/09/28 12:59:27;;;;;;;31.13;28.23;;;;;;;27.00;nan;101520.88;10362589;28;20038;-78
2023/09/28 13:04:28;;;;;;;17.17;13.23;;;;;;;26.91;nan;101508.47;10356320;28;20104;-78
2023/09/28 13:09:29;;;;;;;1999.90;999.90;;;;;;;27.40;nan;101513.28;10329435;28;20042;-78
2023/09/28 13:14:31;;;;;;;1999.90;999.90;;;;;;;25.90;nan;101510.09;10359773;28;20081;-79
2023/09/28 13:19:31;;;;;;;1544.40;778.15;;;;;;;24.29;nan;101506.00;10348227;28;20058;-78
2023/09/28 13:24:32;;;;;;;9.70;6.90;;;;;;;22.78;nan;101499.13;10363724;28;20140;-77
2023/09/28 13:29:33;;;;;;;11.83;7.10;;;;;;;22.32;nan;101483.63;10361970;28;20034;-77
2023/09/28 13:34:33;;;;;;;11.00;7.00;;;;;;;22.08;nan;101469.19;10364723;28;20046;-77
2023/09/28 13:39:35;;;;;;;16.67;6.53;;;;;;;21.90;nan;101458.34;10362037;28;20057;-77
2023/09/28 13:44:37;;;;;;;1999.90;999.90;;;;;;;21.70;nan;101453.72;10364732;28;20049;-77
2023/09/28 13:49:37;;;;;;;;;;;;;;;22.13;nan;101439.91;10346791;28;20042;-77
2023/09/28 13:54:39;;;;;;;1999.90;999.90;;;;;;;22.24;nan;101446.22;10356440;28;19921;-76
2023/09/28 13:59:40;;;;;;;1999.90;999.90;;;;;;;22.03;nan;101438.03;10360576;28;20052;-77
2023/09/28 14:04:40;;;;;;;695.40;361.07;;;;;;;22.21;nan;101421.31;10360158;28;20367;-77
2023/09/28 14:09:41;;;;;;;8.03;3.83;;;;;;;22.82;nan;101426.22;10345250;28;20085;-77
2023/09/28 14:14:41;;;;;;;9.77;3.50;;;;;;;22.83;nan;101438.66;10342130;28;20787;-77
2023/09/28 14:19:42;;;;;;;12.07;4.10;;;;;;;23.46;nan;101430.06;10367981;28;20125;-77
2023/09/28 14:24:42;;;;;;;8.73;4.27;;;;;;;23.57;nan;101446.16;10359837;28;20077;-77
2023/09/28 14:29:43;;;;;;;8.33;3.00;;;;;;;22.92;nan;101455.63;10363937;28;20069;-77
2023/09/28 14:34:43;;;;;;;7.57;4.10;;;;;;;21.98;nan;101438.88;10364832;28;20383;-77
2023/09/28 14:39:44;;;;;;;12.40;3.37;;;;;;;21.35;nan;101414.22;10378580;28;20128;-77
2023/09/28 14:44:45;;;;;;;7.30;3.13;;;;;;;21.20;nan;101402.53;10340237;28;20046;-76
2023/09/28 14:49:46;;;;;;;10.67;3.40;;;;;;;21.19;nan;101389.19;10362544;28;20049;-76
2023/09/28 14:54:47;;;;;;;7.93;3.38;;;;;;;22.18;nan;101395.53;10380424;28;20457;-77
2023/09/28 14:59:47;;;;;;;7.57;3.97;;;;;;;22.49;nan;101411.78;10363759;28;20045;-77
2023/09/28 15:04:48;;;;;;;9.97;3.67;;;;;;;22.23;nan;101392.91;10387203;28;20446;-76
2023/09/28 15:09:48;;;;;;;7.00;3.70;;;;;;;21.45;nan;101393.91;10373054;28;20033;-76
2023/09/28 15:14:49;;;;;;;9.07;3.90;;;;;;;20.85;nan;101378.13;10368621;28;20038;-76
2023/09/28 15:19:49;;;;;;;10.93;3.73;;;;;;;20.36;nan;101348.19;10371686;28;20080;-76
2023/09/28 15:24:51;;;;;;;9.97;3.73;;;;;;;19.94;nan;101334.22;10382861;28;20486;-78
2023/09/28 15:29:51;;;;;;;16.10;4.70;;;;;;;19.76;nan;101321.53;10351854;28;20054;-76
2023/09/28 15:34:52;;;;;;;10.27;4.07;;;;;;;19.50;nan;101305.13;10371662;28;20501;-76
2023/09/28 15:39:52;;;;;;;12.67;3.43;;;;;;;19.54;nan;101301.66;10353349;28;20072;-77
2023/09/28 15:44:53;;;;;;;6.60;3.50;;;;;;;19.58;nan;101300.84;10342042;28;20077;-75
2023/09/28 15:49:54;;;;;;;10.97;4.17;;;;;;;19.51;nan;101305.16;10336581;28;20061;-75
2023/09/28 15:54:54;;;;;;;14.20;4.37;;;;;;;19.30;nan;101310.97;10346183;28;20049;-75
2023/09/28 15:59:55;;;;;;;10.83;3.60;;;;;;;19.12;nan;101307.97;10359872;28;20065;-75
2023/09/28 16:04:56;;;;;;;14.57;5.13;;;;;;;19.02;nan;101305.13;10358350;28;20393;-75
2023/09/28 16:09:57;;;;;;;10.90;4.00;;;;;;;18.88;nan;101304.84;10362137;28;20045;-75
2023/09/28 16:14:57;;;;;;;8.98;3.40;;;;;;;18.65;nan;101307.00;10359427;28;20455;-77
2023/09/28 16:19:58;;;;;;;10.63;3.10;;;;;;;18.40;nan;101314.41;10381924;28;20044;-76
2023/09/28 16:24:59;;;;;;;9.70;4.78;;;;;;;18.21;nan;101307.81;10357081;28;20098;-76
2023/09/28 16:29:59;;;;;;;8.93;3.90;;;;;;;18.04;nan;101297.72;10360740;28;20401;-78
2023/09/28 16:35:00;;;;;;;10.63;4.72;;;;;;;17.87;nan;101297.25;10361246;28;20041;-77
2023/09/28 16:40:00;;;;;;;13.85;5.07;;;;;;;17.74;nan;101303.09;10360305;28;20478;-77
2023/09/28 16:45:01;;;;;;;12.27;4.70;;;;;;;17.56;nan;101308.84;10337500;28;20114;-77
2023/09/28 16:50:01;;;;;;;8.60;3.70;;;;;;;17.42;nan;101311.09;10373833;28;20056;-77
2023/09/28 16:55:02;;;;;;;13.23;5.97;;;;;;;17.20;nan;101310.53;10373212;28;20045;-77
2023/09/28 17:00:05;;;;;;;18.55;5.28;;;;;;;17.01;nan;101319.72;10356894;28;20052;-76
2023/09/28 17:05:06;;;;;;;14.38;5.35;;;;;;;16.87;nan;101304.31;10360546;28;20117;-77
2023/09/28 17:10:08;;;;;;;10.43;5.00;;;;;;;16.73;nan;101306.53;10360110;28;20061;-76
2023/09/28 17:15:08;;;;;;;17.25;5.68;;;;;;;16.63;nan;101320.34;10341925;28;20037;-77
2023/09/28 17:20:09;;;;;;;5.68;2.22;;;;;;;16.53;nan;101316.53;10341263;28;20109;-76
2023/09/28 17:25:13;;;;;;;9.98;3.97;;;;;;;16.37;nan;101323.06;10320644;28;20038;-76
2023/09/28 17:30:13;;;;;;;10.98;3.65;;;;;;;16.32;nan;101319.41;10345937;28;20394;-77
2023/09/28 17:35:16;;;;;;;10.27;3.33;;;;;;;16.13;nan;101324.09;10352292;28;20141;-77
2023/09/28 17:40:18;;;;;;;13.77;5.18;;;;;;;15.94;nan;101325.25;10330053;28;20048;-77
2023/09/28 17:45:19;;;;;;;15.70;6.10;;;;;;;15.82;nan;101324.81;10387777;28;20494;-79
2023/09/28 17:50:19;;;;;;;17.42;5.65;;;;;;;15.66;nan;101326.94;10355758;28;20048;-78
2023/09/28 17:55:20;;;;;;;10.43;4.43;;;;;;;15.50;nan;101343.97;10356535;28;20065;-77
2023/09/28 18:00:21;;;;;;;15.07;6.93;;;;;;;15.34;nan;101354.81;10331618;28;20392;-78
2023/09/28 18:05:21;;;;;;;12.63;6.70;;;;;;;15.23;nan;101354.44;10386067;28;20088;-77
2023/09/28 18:10:22;;;;;;;15.57;6.28;;;;;;;15.14;nan;101372.56;10366223;28;20116;-78
2023/09/28 18:15:24;;;;;;;14.23;8.60;;;;;;;15.01;nan;101379.09;10352960;28;20068;-77
2023/09/28 18:20:25;;;;;;;16.08;6.57;;;;;;;14.88;nan;101372.47;10369488;28;20049;-77
2023/09/28 18:25:25;;;;;;;15.50;6.60;;;;;;;14.75;nan;101390.44;10353628;28;20060;-77
2023/09/28 18:30:26;;;;;;;21.60;8.68;;;;;;;14.80;nan;101395.88;10381976;28;20042;-76
2023/09/28 18:35:26;;;;;;;14.40;7.32;;;;;;;14.88;nan;101399.72;10354150;28;20538;-77
2023/09/28 18:40:27;;;;;;;14.73;6.82;;;;;;;14.72;nan;101381.50;10356384;28;20827;-76
2023/09/28 18:45:27;;;;;;;14.70;6.80;;;;;;;14.48;nan;101380.59;10335031;28;20045;-76
2023/09/28 18:50:28;;;;;;;13.00;7.88;;;;;;;14.31;nan;101384.28;10354208;28;20065;-77
2023/09/28 18:55:28;;;;;;;19.65;7.25;;;;;;;14.20;nan;101400.53;10345525;28;20437;-77
2023/09/28 19:00:29;;;;;;;23.70;8.80;;;;;;;14.25;nan;101400.72;10363978;28;20037;-77
2023/09/28 19:05:29;;;;;;;11.82;8.05;;;;;;;14.16;nan;101393.34;10348456;28;20464;-78
2023/09/28 19:10:31;;;;;;;22.25;9.27;;;;;;;14.10;nan;101401.00;10359391;28;20490;-76
2023/09/28 19:15:32;;;;;;;18.30;8.13;;;;;;;14.21;nan;101398.78;10352168;28;20120;-74
2023/09/28 19:20:34;;;;;;;17.20;8.27;;;;;;;14.14;nan;101387.13;10360528;28;20041;-77
2023/09/28 19:25:37;;;;;;;23.60;10.07;;;;;;;14.04;nan;101379.69;10377159;28;20072;-77
2023/09/28 19:30:38;;;;;;;22.60;9.10;;;;;;;13.90;nan;101376.44;10351192;28;20045;-76
2023/09/28 19:35:39;;;;;;;13.60;7.53;;;;;;;13.73;nan;101358.22;10348156;28;20027;-77
2023/09/28 19:40:39;;;;;;;15.95;8.40;;;;;;;13.68;nan;101358.88;10402591;28;20080;-77
2023/09/28 19:45:40;;;;;;;22.15;9.85;;;;;;;13.59;nan;101364.63;10362725;28;20129;-77
2023/09/28 19:50:41;;;;;;;18.63;10.13;;;;;;;13.46;nan;101358.84;10330800;28;20486;-77
2023/09/28 19:55:42;;;;;;;9.75;4.20;;;;;;;13.54;nan;101358.25;10328665;28;20095;-77
2023/09/28 20:00:42;;;;;;;27.67;9.95;;;;;;;13.51;nan;101344.16;10359044;28;20096;-77
2023/09/28 20:05:43;;;;;;;17.25;10.02;;;;;;;13.61;nan;101336.66;10358860;28;20485;-75
2023/09/28 20:10:43;;;;;;;17.55;10.52;;;;;;;13.48;nan;101328.25;10345560;28;20054;-77
2023/09/28 20:15:44;;;;;;;17.25;8.95;;;;;;;13.50;nan;101326.56;10360981;28;20040;-77
2023/09/28 20:20:44;;;;;;;16.85;10.18;;;;;;;13.46;nan;101324.66;10355234;28;20061;-77
2023/09/28 20:25:45;;;;;;;19.85;9.77;;;;;;;13.42;nan;101335.88;10377241;28;20394;-77
2023/09/28 20:30:46;;;;;;;18.63;11.30;;;;;;;13.38;nan;101336.53;10360082;28;20520;-77
2023/09/28 20:35:46;;;;;;;17.20;9.93;;;;;;;13.40;nan;101331.34;10368513;28;20116;-75
2023/09/28 20:40:47;;;;;;;19.10;9.55;;;;;;;13.36;nan;101333.84;10343529;28;20076;-75
2023/09/28 20:45:47;;;;;;;20.77;9.35;;;;;;;13.38;nan;101330.38;10354001;28;20132;-76
2023/09/28 20:50:48;;;;;;;17.23;10.32;;;;;;;13.39;nan;101332.19;10356179;28;20065;-76
2023/09/28 20:55:48;;;;;;;19.90;11.23;;;;;;;13.35;nan;101347.81;10359544;28;20510;-76
2023/09/28 21:00:49;;;;;;;15.45;9.73;;;;;;;13.26;nan;101347.41;10361129;28;20061;-76
2023/09/28 21:05:49;;;;;;;20.80;11.63;;;;;;;13.18;nan;101340.91;10373033;28;20132;-76
2023/09/28 21:10:50;;;;;;;19.25;10.98;;;;;;;13.19;nan;101327.84;10356510;28;20523;-76
2023/09/28 21:15:51;;;;;;;21.60;11.05;;;;;;;13.33;nan;101323.19;10348092;28;20088;-75
2023/09/28 21:20:51;;;;;;;25.75;12.77;;;;;;;13.38;nan;101319.88;10348956;28;20038;-76
2023/09/28 21:25:52;;;;;;;28.27;11.90;;;;;;;13.38;nan;101302.34;10362372;28;20566;-76
2023/09/28 21:30:52;;;;;;;20.65;14.00;;;;;;;13.37;nan;101308.44;10358204;28;20065;-77
2023/09/28 21:35:53;;;;;;;21.33;11.52;;;;;;;13.39;nan;101312.03;10371055;28;20091;-77
2023/09/28 21:40:53;;;;;;;28.45;11.65;;;;;;;13.44;nan;101321.06;10354895;28;21168;-76
2023/09/28 21:45:54;;;;;;;21.02;12.07;;;;;;;13.44;nan;101313.16;10357639;28;20037;-76
2023/09/28 21:50:54;;;;;;;21.08;11.77;;;;;;;13.49;nan;101322.16;10347885;28;20130;-76
2023/09/28 21:55:55;;;;;;;27.98;11.45;;;;;;;13.50;nan;101313.44;10353867;28;20111;-76
2023/09/28 22:00:55;;;;;;;15.73;9.77;;;;;;;13.50;nan;101312.56;10355587;28;20486;-76
2023/09/28 22:05:56;;;;;;;23.52;10.95;;;;;;;13.49;nan;101316.88;10357021;28;20030;-76
2023/09/28 22:10:56;;;;;;;20.13;10.73;;;;;;;13.46;nan;101321.13;10347055;28;20061;-76
2023/09/28 22:15:57;;;;;;;17.00;9.93;;;;;;;13.43;nan;101321.00;10355474;28;20120;-75
2023/09/28 22:20:58;;;;;;;22.42;10.05;;;;;;;13.41;nan;101331.41;10358760;28;20048;-76
2023/09/28 22:25:58;;;;;;;15.95;9.35;;;;;;;13.35;nan;101320.63;10360075;28;20038;-75
2023/09/28 22:30:59;;;;;;;13.18;9.93;;;;;;;13.28;nan;101324.72;10381379;28;20077;-76
2023/09/28 22:36:00;;;;;;;18.77;9.98;;;;;;;13.25;nan;101323.69;10382397;28;20378;-76
2023/09/28 22:41:01;;;;;;;22.55;10.75;;;;;;;13.21;nan;101334.06;10398688;28;20129;-76
2023/09/28 22:46:01;;;;;;;16.83;11.18;;;;;;;13.26;nan;101322.84;10374371;28;20123;-75
2023/09/28 22:51:02;;;;;;;23.50;12.27;;;;;;;13.34;nan;101327.63;10366949;28;20493;-76
2023/09/28 22:56:02;;;;;;;20.50;11.10;;;;;;;13.41;nan;101333.16;10361170;28;20041;-76
2023/09/28 23:01:03;;;;;;;24.50;14.43;;;;;;;13.39;nan;101319.03;10327348;28;20068;-76
2023/09/28 23:06:06;;;;;;;24.52;12.68;;;;;;;13.39;nan;101329.56;10368869;28;20038;-76
2023/09/28 23:11:14;;;;;;;23.65;13.05;;;;;;;13.48;nan;101330.00;10365147;28;20080;-76
2023/09/28 23:16:14;;;;;;;16.77;13.70;;;;;;;13.55;nan;101334.69;10342476;28;20048;-75
2023/09/28 23:21:15;;;;;;;34.97;14.07;;;;;;;13.58;nan;101333.91;10363694;28;20387;-76